Time;durP1;ratioP1;P1;durP2;ratioP2;P2;SDS_P1;SDS_P2;PMS_P1;PMS_P2;Temp;Humidity;BMP_temperature;BMP_pressure;BME280_temperature;BME280_humidity;BME280_pressure;Samples;Min_cycle;Max_cycle;Signal;HPM_P1;HPM_P2
2023/04/07 00:01:42;;;;;;;;;;;8.50;92.30;;;;;;5111008;28;19919;-66
2023/04/07 00:04:08;;;;;;;;;;;8.50;92.20;;;;;;5111291;28;20383;-66
2023/04/07 00:06:33;;;;;;;;;;;8.50;92.30;;;;;;5110039;28;19922;-66
2023/04/07 00:08:59;;;;;;;;;;;8.50;92.30;;;;;;5111224;28;19916;-66
2023/04/07 00:11:24;;;;;;;;;;;8.50;92.30;;;;;;5111006;28;19994;-66
2023/04/07 00:13:50;;;;;;;;;;;8.50;92.30;;;;;;5110834;28;19908;-66
2023/04/07 00:16:16;;;;;;;;;;;8.40;92.30;;;;;;5111301;28;20744;-66
2023/04/07 00:18:41;;;;;;;;;;;8.50;92.40;;;;;;5110647;28;20353;-66
2023/04/07 00:21:07;;;;;;;;;;;8.50;92.50;;;;;;5111262;28;20277;-66
2023/04/07 00:23:32;;;;;;;;;;;8.40;92.40;;;;;;5110550;28;19912;-66
2023/04/07 00:25:58;;;;;;;;;;;8.40;92.50;;;;;;5110916;28;19922;-66
2023/04/07 00:28:24;;;;;;;;;;;8.40;92.50;;;;;;5110451;28;19923;-66
2023/04/07 00:30:49;;;;;;;;;;;8.40;92.50;;;;;;5106401;28;19912;-66
2023/04/07 00:33:15;;;;;;;;;;;8.40;92.80;;;;;;5089823;28;19948;-66
2023/04/07 00:35:40;;;;;;;;;;;8.40;92.50;;;;;;5103422;28;19951;-66
2023/04/07 00:38:06;;;;;;;;;;;8.40;92.60;;;;;;5110128;27;19934;-66
2023/04/07 00:40:32;;;;;;;;;;;8.40;92.60;;;;;;5110311;28;19943;-66
2023/04/07 00:42:57;;;;;;;;;;;8.40;92.60;;;;;;5109228;28;19912;-66
2023/04/07 00:45:23;;;;;;;;;;;8.40;92.70;;;;;;5109367;28;19994;-66
2023/04/07 00:47:48;;;;;;;;;;;8.40;92.70;;;;;;5108496;28;19911;-66
2023/04/07 00:50:14;;;;;;;;;;;8.40;92.60;;;;;;5110515;28;20441;-66
2023/04/07 00:52:40;;;;;;;;;;;8.40;92.70;;;;;;5108665;28;20344;-66
2023/04/07 00:55:05;;;;;;;;;;;8.40;92.70;;;;;;5108951;28;19989;-66
2023/04/07 00:57:31;;;;;;;;;;;8.40;92.70;;;;;;5109611;28;19912;-66
2023/04/07 00:59:56;;;;;;;;;;;8.40;92.70;;;;;;5110318;28;19919;-66
2023/04/07 01:02:30;;;;;;;;;;;8.40;92.70;;;;;;5110320;28;19912;-66
2023/04/07 01:05:02;;;;;;;;;;;8.40;92.80;;;;;;5110352;27;19908;-66
2023/04/07 01:07:30;;;;;;;;;;;8.40;92.80;;;;;;5110061;28;19919;-66
2023/04/07 01:10:03;;;;;;;;;;;8.40;92.90;;;;;;5110268;28;19912;-66
2023/04/07 01:12:35;;;;;;;;;;;8.40;92.90;;;;;;5109146;28;19922;-66
2023/04/07 01:15:06;;;;;;;;;;;8.40;92.80;;;;;;5109987;28;19939;-66
2023/04/07 01:17:33;;;;;;;;;;;8.40;92.80;;;;;;5110206;28;20326;-66
2023/04/07 01:20:02;;;;;;;;;;;8.40;92.90;;;;;;5108689;28;20380;-66
2023/04/07 01:22:32;;;;;;;;;;;8.40;92.90;;;;;;5091633;28;19919;-66
2023/04/07 01:25:07;;;;;;;;;;;8.40;93.00;;;;;;5110220;28;20000;-66
2023/04/07 01:27:38;;;;;;;;;;;8.40;92.90;;;;;;5109823;28;19951;-66
2023/04/07 01:30:06;;;;;;;;;;;8.30;92.90;;;;;;5109704;28;20257;-66
2023/04/07 01:32:33;;;;;;;;;;;8.40;93.00;;;;;;5096594;28;20007;-66
2023/04/07 01:34:58;;;;;;;;;;;8.30;93.00;;;;;;5109471;28;20620;-66
2023/04/07 01:37:25;;;;;;;;;;;8.30;93.00;;;;;;5109356;28;19947;-66
2023/04/07 01:39:50;;;;;;;;;;;8.30;93.10;;;;;;5109844;28;20273;-66
2023/04/07 01:42:17;;;;;;;;;;;8.30;93.00;;;;;;5107896;28;19916;-66
2023/04/07 01:44:43;;;;;;;;;;;8.30;93.00;;;;;;5109585;28;19919;-66
2023/04/07 01:47:09;;;;;;;;;;;8.30;93.00;;;;;;5109514;27;20027;-66
2023/04/07 01:49:35;;;;;;;;;;;8.30;93.10;;;;;;5109482;28;20002;-66
2023/04/07 01:52:01;;;;;;;;;;;8.30;93.10;;;;;;5109465;28;19922;-66
2023/04/07 01:54:27;;;;;;;;;;;8.30;93.10;;;;;;5108174;28;19911;-66
2023/04/07 01:56:53;;;;;;;;;;;8.40;93.20;;;;;;5109157;28;19912;-66
2023/04/07 01:59:18;;;;;;;;;;;8.30;93.10;;;;;;5109157;27;19912;-66
2023/04/07 02:01:44;;;;;;;;;;;8.30;93.40;;;;;;5107753;28;19961;-66
2023/04/07 02:04:29;;;;;;;;;;;8.30;93.10;;;;;;5109051;28;20515;-66
2023/04/07 02:06:58;;;;;;;;;;;8.30;93.10;;;;;;5109276;28;19911;-66
2023/04/07 02:09:25;;;;;;;;;;;8.30;93.20;;;;;;5109388;28;19923;-66
2023/04/07 02:11:51;;;;;;;;;;;8.30;93.10;;;;;;5108992;27;19908;-66
2023/04/07 02:14:18;;;;;;;;;;;8.30;93.00;;;;;;5109162;28;19915;-66
2023/04/07 02:16:45;;;;;;;;;;;8.30;93.10;;;;;;5109516;28;19912;-65
2023/04/07 02:19:11;;;;;;;;;;;8.30;93.10;;;;;;5108933;28;20002;-66
2023/04/07 02:21:38;;;;;;;;;;;8.30;93.20;;;;;;5108993;28;20309;-65
2023/04/07 02:24:07;;;;;;;;;;;8.30;93.20;;;;;;5108616;28;20006;-66
2023/04/07 02:26:34;;;;;;;;;;;8.30;93.20;;;;;;5108817;28;19918;-66
2023/04/07 02:29:00;;;;;;;;;;;8.30;93.10;;;;;;5108836;28;19922;-66
2023/04/07 02:31:25;;;;;;;;;;;8.30;93.20;;;;;;5099315;28;20451;-66
2023/04/07 02:33:51;;;;;;;;;;;8.30;93.20;;;;;;5088203;28;19912;-66
2023/04/07 02:36:16;;;;;;;;;;;8.30;93.20;;;;;;5090332;28;19912;-66
2023/04/07 02:38:42;;;;;;;;;;;8.30;93.20;;;;;;5108829;28;19912;-66
2023/04/07 02:41:07;;;;;;;;;;;8.30;93.20;;;;;;5108919;28;19919;-66
2023/04/07 02:43:33;;;;;;;;;;;8.30;93.20;;;;;;5108105;28;19916;-66
2023/04/07 02:45:58;;;;;;;;;;;8.30;93.20;;;;;;5108927;28;19916;-66
2023/04/07 02:48:24;;;;;;;;;;;8.30;93.20;;;;;;5108276;28;19923;-66
2023/04/07 02:50:50;;;;;;;;;;;8.30;93.20;;;;;;5108904;28;19914;-65
2023/04/07 02:53:15;;;;;;;;;;;8.30;93.10;;;;;;5108133;28;19912;-65
2023/04/07 02:55:41;;;;;;;;;;;8.30;93.20;;;;;;5106929;28;19918;-66
2023/04/07 02:58:06;;;;;;;;;;;8.30;93.20;;;;;;5108017;28;19907;-65
2023/04/07 03:00:32;;;;;;;;;;;8.30;93.30;;;;;;5106903;28;19912;-66
2023/04/07 03:02:58;;;;;;;;;;;8.30;93.30;;;;;;5108117;28;20672;-66
2023/04/07 03:05:23;;;;;;;;;;;8.30;93.40;;;;;;5108442;28;19916;-65
2023/04/07 03:07:49;;;;;;;;;;;8.30;93.30;;;;;;5108319;28;19912;-66
2023/04/07 03:10:15;;;;;;;;;;;8.30;93.30;;;;;;5108365;28;19916;-66
2023/04/07 03:12:40;;;;;;;;;;;8.20;93.30;;;;;;5108053;28;19918;-66
2023/04/07 03:15:06;;;;;;;;;;;8.20;93.20;;;;;;5106870;28;19912;-66
2023/04/07 03:17:32;;;;;;;;;;;8.30;93.30;;;;;;5108194;28;19912;-65
2023/04/07 03:19:57;;;;;;;;;;;8.20;93.30;;;;;;5108113;28;19920;-65
2023/04/07 03:22:23;;;;;;;;;;;8.20;93.30;;;;;;5108022;28;19915;-65
2023/04/07 03:24:48;;;;;;;;;;;8.20;93.30;;;;;;5108505;28;19919;-66
2023/04/07 03:27:16;;;;;;;;;;;8.20;93.30;;;;;;5106644;28;20427;-66
2023/04/07 03:29:41;;;;;;;;;;;8.20;93.30;;;;;;5107783;28;20330;-66
2023/04/07 03:32:07;;;;;;;;;;;8.20;93.20;;;;;;5091123;28;19916;-66
2023/04/07 03:34:33;;;;;;;;;;;8.20;93.70;;;;;;5086864;28;20293;-65
2023/04/07 03:36:58;;;;;;;;;;;8.20;93.40;;;;;;5099556;28;20391;-65
2023/04/07 03:39:24;;;;;;;;;;;8.20;93.30;;;;;;5112325;28;19936;-66
2023/04/07 03:41:50;;;;;;;;;;;8.30;93.40;;;;;;5111911;28;20007;-65
2023/04/07 03:44:16;;;;;;;;;;;8.20;93.40;;;;;;5111944;27;19963;-66
2023/04/07 03:46:41;;;;;;;;;;;8.20;93.30;;;;;;5111933;28;20376;-66
2023/04/07 03:49:07;;;;;;;;;;;8.30;93.30;;;;;;5111754;28;19972;-66
2023/04/07 03:51:33;;;;;;;;;;;8.20;93.40;;;;;;5111995;28;19935;-65
2023/04/07 03:53:58;;;;;;;;;;;8.20;93.30;;;;;;5111858;28;20383;-66
2023/04/07 03:56:24;;;;;;;;;;;8.30;93.50;;;;;;5111771;28;19915;-65
2023/04/07 03:58:49;;;;;;;;;;;8.20;93.40;;;;;;5111192;27;19911;-65
2023/04/07 04:01:15;;;;;;;;;;;8.30;93.50;;;;;;5111814;28;19912;-66
2023/04/07 04:03:41;;;;;;;;;;;8.30;93.50;;;;;;5111012;28;19919;-66
2023/04/07 04:06:07;;;;;;;;;;;8.30;93.50;;;;;;5111760;28;19951;-65
2023/04/07 04:08:32;;;;;;;;;;;8.30;93.60;;;;;;5111402;27;20679;-66
2023/04/07 04:10:58;;;;;;;;;;;8.30;93.50;;;;;;5111784;28;19964;-66
2023/04/07 04:13:23;;;;;;;;;;;8.30;93.60;;;;;;5111165;28;19988;-66
2023/04/07 04:15:49;;;;;;;;;;;8.30;93.60;;;;;;5111601;28;20404;-66
2023/04/07 04:18:14;;;;;;;;;;;8.30;93.70;;;;;;5111183;28;19916;-65
2023/04/07 04:20:40;;;;;;;;;;;8.30;93.70;;;;;;5111572;28;19919;-66
2023/04/07 04:23:05;;;;;;;;;;;8.30;93.70;;;;;;5111226;28;19930;-66
2023/04/07 04:25:31;;;;;;;;;;;8.30;93.70;;;;;;5111123;28;19908;-65
2023/04/07 04:27:56;;;;;;;;;;;8.30;93.70;;;;;;5111393;28;19912;-65
2023/04/07 04:30:22;;;;;;;;;;;8.30;93.70;;;;;;5110229;28;19968;-65
2023/04/07 04:32:48;;;;;;;;;;;8.30;93.90;;;;;;5090364;28;19912;-66
2023/04/07 04:35:14;;;;;;;;;;;8.30;93.80;;;;;;5099647;28;19919;-66
2023/04/07 04:37:40;;;;;;;;;;;8.30;93.80;;;;;;5109373;28;20543;-66
2023/04/07 04:40:07;;;;;;;;;;;8.30;94.10;;;;;;5111009;28;19915;-66
2023/04/07 04:42:33;;;;;;;;;;;8.30;94.10;;;;;;5110436;28;19911;-66
2023/04/07 04:44:58;;;;;;;;;;;8.30;94.00;;;;;;5110450;28;19916;-66
2023/04/07 04:47:24;;;;;;;;;;;8.30;94.10;;;;;;5109342;28;19914;-66
2023/04/07 04:49:49;;;;;;;;;;;8.30;94.20;;;;;;5110245;28;19915;-65
2023/04/07 04:52:15;;;;;;;;;;;8.30;94.30;;;;;;5110464;28;19918;-66
2023/04/07 04:54:40;;;;;;;;;;;8.30;94.30;;;;;;5110759;28;19915;-66
2023/04/07 04:57:06;;;;;;;;;;;8.30;94.20;;;;;;5109842;28;19911;-65
2023/04/07 04:59:32;;;;;;;;;;;8.30;94.20;;;;;;5110042;28;19912;-65
2023/04/07 05:01:58;;;;;;;;;;;8.30;94.20;;;;;;5110055;28;20475;-66
2023/04/07 05:04:23;;;;;;;;;;;8.30;94.40;;;;;;5109797;28;19912;-65
2023/04/07 05:06:49;;;;;;;;;;;8.30;94.30;;;;;;5109026;28;19990;-66
2023/04/07 05:09:15;;;;;;;;;;;8.30;94.40;;;;;;5110386;28;19938;-65
2023/04/07 05:11:41;;;;;;;;;;;8.30;94.40;;;;;;5110246;28;20288;-66
2023/04/07 05:14:06;;;;;;;;;;;8.30;94.20;;;;;;5110234;28;19919;-66
2023/04/07 05:16:32;;;;;;;;;;;8.30;94.40;;;;;;5110313;28;19912;-66
2023/04/07 05:18:57;;;;;;;;;;;8.30;94.30;;;;;;5108590;28;20265;-65
2023/04/07 05:21:23;;;;;;;;;;;8.30;94.40;;;;;;5108922;28;20550;-65
2023/04/07 05:23:48;;;;;;;;;;;8.30;94.50;;;;;;5109267;28;19912;-66
2023/04/07 05:26:14;;;;;;;;;;;8.30;94.50;;;;;;5109982;28;20033;-65
2023/04/07 05:28:40;;;;;;;;;;;8.30;94.50;;;;;;5109521;28;19970;-65
2023/04/07 05:31:05;;;;;;;;;;;8.30;94.50;;;;;;5103205;28;20310;-65
2023/04/07 05:33:31;;;;;;;;;;;8.30;94.50;;;;;;5089132;28;19919;-66
2023/04/07 05:35:56;;;;;;;;;;;8.30;94.60;;;;;;5089683;28;20391;-65
2023/04/07 05:38:22;;;;;;;;;;;8.30;94.70;;;;;;5108578;28;19918;-65
2023/04/07 05:40:48;;;;;;;;;;;8.30;94.70;;;;;;5109843;28;20044;-65
2023/04/07 05:43:13;;;;;;;;;;;8.30;94.70;;;;;;5109279;28;19911;-65
2023/04/07 05:45:39;;;;;;;;;;;8.30;94.70;;;;;;5109770;28;19934;-66
2023/04/07 05:48:05;;;;;;;;;;;8.30;95.00;;;;;;5109249;28;19911;-65
2023/04/07 05:50:30;;;;;;;;;;;8.30;94.70;;;;;;5107404;28;20325;-65
2023/04/07 05:52:56;;;;;;;;;;;8.30;94.70;;;;;;5108495;28;19911;-66
2023/04/07 05:55:21;;;;;;;;;;;8.30;94.60;;;;;;5108899;28;19918;-65
2023/04/07 05:57:48;;;;;;;;;;;8.30;94.70;;;;;;5108258;28;19985;-65
2023/04/07 06:00:14;;;;;;;;;;;8.30;94.60;;;;;;5107840;28;19955;-65
2023/04/07 06:02:39;;;;;;;;;;;8.30;94.70;;;;;;5107996;28;19971;-65
2023/04/07 06:05:05;;;;;;;;;;;8.30;95.00;;;;;;5108773;28;19912;-65
2023/04/07 06:07:31;;;;;;;;;;;8.30;95.00;;;;;;5107493;28;20003;-65
2023/04/07 06:09:57;;;;;;;;;;;8.30;94.90;;;;;;5109134;28;20088;-65
2023/04/07 06:12:22;;;;;;;;;;;8.30;95.10;;;;;;5108170;28;19916;-66
2023/04/07 06:14:54;;;;;;;;;;;8.30;94.90;;;;;;5108526;28;19919;-66
2023/04/07 06:17:20;;;;;;;;;;;8.30;95.00;;;;;;5108297;28;19968;-65
2023/04/07 06:19:46;;;;;;;;;;;8.30;94.90;;;;;;5108218;28;19920;-65
2023/04/07 06:22:11;;;;;;;;;;;8.30;95.30;;;;;;5108161;28;19911;-65
2023/04/07 06:24:37;;;;;;;;;;;8.30;95.10;;;;;;5108249;28;20407;-65
2023/04/07 06:27:02;;;;;;;;;;;8.30;95.10;;;;;;5108286;28;19912;-65
2023/04/07 06:29:34;;;;;;;;;;;8.30;95.10;;;;;;5108122;28;19912;-66
2023/04/07 06:32:00;;;;;;;;;;;8.30;95.10;;;;;;5107555;28;19952;-65
2023/04/07 06:34:25;;;;;;;;;;;8.30;95.20;;;;;;5108024;28;19916;-65
2023/04/07 06:36:51;;;;;;;;;;;8.30;95.40;;;;;;5107839;28;19912;-65
2023/04/07 06:39:16;;;;;;;;;;;8.30;95.60;;;;;;5108147;28;19935;-66
2023/04/07 06:41:42;;;;;;;;;;;8.30;95.60;;;;;;5107699;28;19958;-66
2023/04/07 06:44:08;;;;;;;;;;;8.40;95.90;;;;;;5107594;28;19942;-66
2023/04/07 06:46:34;;;;;;;;;;;8.30;96.00;;;;;;5108075;28;19999;-65
2023/04/07 06:48:59;;;;;;;;;;;8.30;95.70;;;;;;5108330;28;19912;-65
2023/04/07 06:51:25;;;;;;;;;;;8.40;95.80;;;;;;5108609;28;19915;-65
2023/04/07 06:53:50;;;;;;;;;;;8.40;96.00;;;;;;5106589;28;19908;-65
2023/04/07 06:56:16;;;;;;;;;;;8.40;96.00;;;;;;5108317;28;19968;-65
2023/04/07 06:58:41;;;;;;;;;;;8.40;95.80;;;;;;5108090;28;20394;-66
2023/04/07 07:01:07;;;;;;;;;;;8.40;95.90;;;;;;5108480;28;19919;-66
2023/04/07 07:03:33;;;;;;;;;;;8.40;96.40;;;;;;5108014;28;19912;-65
2023/04/07 07:05:58;;;;;;;;;;;8.40;96.40;;;;;;5108496;28;19915;-66
2023/04/07 07:08:24;;;;;;;;;;;8.40;96.00;;;;;;5108200;28;19916;-65
2023/04/07 07:10:50;;;;;;;;;;;8.40;95.80;;;;;;5110884;28;19908;-66
2023/04/07 07:13:16;;;;;;;;;;;8.40;96.20;;;;;;5112070;28;19919;-66
2023/04/07 07:15:42;;;;;;;;;;;8.40;96.30;;;;;;5111199;28;19957;-66
2023/04/07 07:18:07;;;;;;;;;;;8.40;95.90;;;;;;5112221;28;19954;-65
2023/04/07 07:20:33;;;;;;;;;;;8.40;95.90;;;;;;5112485;28;19919;-65
2023/04/07 07:22:58;;;;;;;;;;;8.40;95.90;;;;;;5111988;28;19912;-66
2023/04/07 07:25:25;;;;;;;;;;;8.40;95.80;;;;;;5112437;28;19908;-65
2023/04/07 07:27:52;;;;;;;;;;;8.40;95.90;;;;;;5110721;28;19912;-66
2023/04/07 07:30:19;;;;;;;;;;;8.50;96.00;;;;;;5111821;28;19923;-65
2023/04/07 07:32:45;;;;;;;;;;;8.40;95.80;;;;;;5106135;28;20396;-66
2023/04/07 07:35:10;;;;;;;;;;;8.40;95.70;;;;;;5090745;28;20559;-65
2023/04/07 07:37:36;;;;;;;;;;;8.40;95.80;;;;;;5103738;28;20538;-66
2023/04/07 07:40:01;;;;;;;;;;;8.50;96.00;;;;;;5110905;28;19918;-66
2023/04/07 07:42:27;;;;;;;;;;;8.50;95.90;;;;;;5110840;28;19911;-66
2023/04/07 07:44:52;;;;;;;;;;;8.50;96.00;;;;;;5110955;28;19923;-65
2023/04/07 07:47:18;;;;;;;;;;;8.50;95.80;;;;;;5110822;28;19915;-65
2023/04/07 07:49:43;;;;;;;;;;;8.50;95.80;;;;;;5109560;28;19916;-66
2023/04/07 07:52:10;;;;;;;;;;;8.50;95.80;;;;;;5110630;28;19916;-66
2023/04/07 07:54:35;;;;;;;;;;;8.50;95.80;;;;;;5110887;28;19908;-65
2023/04/07 07:57:01;;;;;;;;;;;8.50;95.80;;;;;;5105312;28;19932;-65
2023/04/07 07:59:27;;;;;;;;;;;8.50;95.80;;;;;;5110284;28;19967;-65
2023/04/07 08:01:53;;;;;;;;;;;8.50;95.80;;;;;;5110478;28;20489;-65
2023/04/07 08:04:19;;;;;;;;;;;8.50;95.70;;;;;;5110560;28;19911;-65
2023/04/07 08:06:45;;;;;;;;;;;8.50;95.60;;;;;;5110511;28;19912;-66
2023/04/07 08:09:10;;;;;;;;;;;8.50;95.80;;;;;;5110506;28;19923;-66
2023/04/07 08:11:36;;;;;;;;;;;8.60;95.80;;;;;;5110389;28;19912;-65
2023/04/07 08:14:01;;;;;;;;;;;8.60;95.90;;;;;;5110120;28;20675;-65
2023/04/07 08:16:27;;;;;;;;;;;8.60;95.80;;;;;;5110445;27;20284;-66
2023/04/07 08:18:52;;;;;;;;;;;8.60;95.80;;;;;;5109885;27;20380;-65
2023/04/07 08:21:19;;;;;;;;;;;8.60;95.80;;;;;;5109827;28;20007;-65
2023/04/07 08:23:45;;;;;;;;;;;8.60;95.90;;;;;;5110026;28;19920;-66
2023/04/07 08:26:10;;;;;;;;;;;8.70;95.80;;;;;;5109473;28;19918;-66
2023/04/07 08:28:36;;;;;;;;;;;8.70;95.60;;;;;;5108373;28;19919;-66
2023/04/07 08:31:01;;;;;;;;;;;8.70;95.80;;;;;;5109637;28;19915;-65
2023/04/07 08:33:27;;;;;;;;;;;8.70;95.70;;;;;;5109758;28;20254;-65
2023/04/07 08:35:52;;;;;;;;;;;8.70;95.60;;;;;;5110053;28;19946;-66
2023/04/07 08:38:18;;;;;;;;;;;8.80;95.80;;;;;;5110032;28;20007;-66
2023/04/07 08:40:44;;;;;;;;;;;8.80;95.60;;;;;;5110203;28;20041;-66
2023/04/07 08:43:11;;;;;;;;;;;8.80;95.90;;;;;;5109345;28;20002;-65
2023/04/07 08:45:38;;;;;;;;;;;8.80;95.90;;;;;;5110023;27;20475;-66
2023/04/07 08:48:07;;;;;;;;;;;8.80;95.90;;;;;;5113116;27;19919;-65
2023/04/07 08:50:33;;;;;;;;;;;8.80;95.80;;;;;;5120937;27;20085;-65
2023/04/07 08:52:59;;;;;;;;;;;8.80;95.80;;;;;;5130975;27;20037;-66
2023/04/07 08:55:25;;;;;;;;;;;8.90;95.70;;;;;;5129108;27;19907;-66
2023/04/07 08:57:51;;;;;;;;;;;8.90;95.80;;;;;;5108311;28;19915;-66
2023/04/07 09:00:17;;;;;;;;;;;8.90;95.80;;;;;;5109884;28;20002;-66
2023/04/07 09:02:44;;;;;;;;;;;8.90;95.90;;;;;;5108519;28;20019;-66
2023/04/07 09:05:10;;;;;;;;;;;8.90;95.80;;;;;;5110013;28;19920;-66
2023/04/07 09:07:37;;;;;;;;;;;8.90;95.80;;;;;;5108617;28;19943;-65
2023/04/07 09:10:02;;;;;;;;;;;8.90;95.90;;;;;;5110409;28;19923;-66
2023/04/07 09:12:28;;;;;;;;;;;9.00;95.70;;;;;;5110130;28;19912;-66
2023/04/07 09:14:54;;;;;;;;;;;8.90;95.80;;;;;;5108248;28;19911;-65
2023/04/07 09:17:20;;;;;;;;;;;9.00;95.80;;;;;;5109832;28;20320;-65
2023/04/07 09:19:48;;;;;;;;;;;8.90;95.80;;;;;;5109690;28;19968;-66
2023/04/07 09:22:13;;;;;;;;;;;9.00;95.80;;;;;;5109768;28;19912;-65
2023/04/07 09:24:39;;;;;;;;;;;9.00;95.80;;;;;;5127505;27;20565;-65
2023/04/07 09:27:13;;;;;;;;;;;9.00;95.80;;;;;;5114481;27;19936;-66
2023/04/07 09:29:40;;;;;;;;;;;9.00;95.80;;;;;;5109394;28;20530;-66
2023/04/07 09:32:05;;;;;;;;;;;9.00;95.80;;;;;;5092166;28;19911;-66
2023/04/07 09:34:32;;;;;;;;;;;9.10;95.90;;;;;;5088514;28;20367;-65
2023/04/07 09:36:58;;;;;;;;;;;9.00;95.80;;;;;;5096511;28;19919;-66
2023/04/07 09:39:24;;;;;;;;;;;9.00;95.80;;;;;;5109560;27;19912;-66
2023/04/07 09:41:50;;;;;;;;;;;9.10;95.80;;;;;;5108618;28;19918;-66
2023/04/07 09:44:17;;;;;;;;;;;9.10;95.90;;;;;;5108650;28;20469;-66
2023/04/07 09:46:56;;;;;;;;;;;9.10;95.90;;;;;;5108372;28;19937;-66
2023/04/07 09:49:25;;;;;;;;;;;9.10;95.80;;;;;;5108404;28;19912;-66
2023/04/07 09:51:53;;;;;;;;;;;9.10;95.90;;;;;;5108075;28;19914;-66
2023/04/07 09:54:51;;;;;;;;;;;9.10;95.80;;;;;;5109284;28;20268;-65
2023/04/07 09:57:17;;;;;;;;;;;9.10;95.60;;;;;;5068982;28;19911;-66
2023/04/07 09:59:43;;;;;;;;;;;9.10;95.90;;;;;;5108979;28;19919;-66
2023/04/07 10:02:10;;;;;;;;;;;9.10;95.80;;;;;;5107977;28;19942;-66
2023/04/07 10:04:36;;;;;;;;;;;9.20;95.80;;;;;;5108015;28;20292;-66
2023/04/07 10:07:02;;;;;;;;;;;9.20;95.90;;;;;;5106885;28;19915;-66
2023/04/07 10:09:28;;;;;;;;;;;9.20;95.90;;;;;;5106746;28;19916;-66
2023/04/07 10:11:56;;;;;;;;;;;9.20;95.90;;;;;;5107931;28;20002;-66
2023/04/07 10:14:23;;;;;;;;;;;9.20;95.90;;;;;;5107999;27;19918;-66
2023/04/07 10:16:50;;;;;;;;;;;9.20;96.00;;;;;;5106451;28;19994;-66
2023/04/07 10:19:17;;;;;;;;;;;9.20;96.10;;;;;;5107774;28;20068;-66
2023/04/07 10:21:43;;;;;;;;;;;9.20;96.00;;;;;;5106061;28;20287;-66
2023/04/07 10:24:27;;;;;;;;;;;9.20;96.00;;;;;;5106409;28;19912;-66
2023/04/07 10:26:55;;;;;;;;;;;9.30;96.10;;;;;;5107696;28;20430;-66
2023/04/07 10:29:22;;;;;;;;;;;9.30;96.00;;;;;;5107869;28;19912;-66
2023/04/07 10:31:48;;;;;;;;;;;9.30;95.90;;;;;;5095054;28;20437;-66
2023/04/07 10:34:14;;;;;;;;;;;9.30;96.00;;;;;;5087265;28;19912;-66
2023/04/07 10:36:58;;;;;;;;;;;9.30;96.00;;;;;;5092083;28;19908;-66
2023/04/07 10:39:23;;;;;;;;;;;9.30;95.90;;;;;;5107559;28;20560;-66
2023/04/07 10:41:50;;;;;;;;;;;9.30;96.00;;;;;;5107144;28;19995;-66
2023/04/07 10:44:35;;;;;;;;;;;9.30;96.00;;;;;;5107125;28;20268;-66
2023/04/07 10:47:01;;;;;;;;;;;9.30;96.10;;;;;;5107698;28;19919;-66
2023/04/07 10:49:27;;;;;;;;;;;9.30;96.10;;;;;;5107551;28;19984;-66
2023/04/07 10:52:11;;;;;;;;;;;9.30;96.10;;;;;;5107279;28;19912;-66
2023/04/07 10:54:40;;;;;;;;;;;9.30;96.00;;;;;;5107416;28;19951;-65
2023/04/07 10:57:15;;;;;;;;;;;9.30;96.00;;;;;;5106903;28;20323;-66
2023/04/07 11:00:01;;;;;;;;;;;9.30;95.80;;;;;;5107166;28;19907;-66
2023/04/07 11:02:26;;;;;;;;;;;9.30;95.80;;;;;;5103735;28;19972;-66
2023/04/07 11:04:52;;;;;;;;;;;9.30;95.90;;;;;;5094098;28;19916;-65
2023/04/07 11:07:18;;;;;;;;;;;9.30;95.70;;;;;;5106296;28;19915;-66
2023/04/07 11:09:44;;;;;;;;;;;9.40;95.80;;;;;;5106617;28;20499;-66
2023/04/07 11:12:22;;;;;;;;;;;9.40;95.90;;;;;;5106050;28;19912;-66
2023/04/07 11:14:48;;;;;;;;;;;9.40;95.90;;;;;;5106562;28;19911;-66
2023/04/07 11:17:13;;;;;;;;;;;9.40;96.00;;;;;;5107043;28;20276;-66
2023/04/07 11:19:52;;;;;;;;;;;9.50;95.80;;;;;;5106289;28;20006;-66
2023/04/07 11:22:17;;;;;;;;;;;9.50;96.10;;;;;;5098515;28;20002;-66
2023/04/07 11:24:44;;;;;;;;;;;9.50;96.00;;;;;;5085240;28;20011;-66
2023/04/07 11:27:13;;;;;;;;;;;9.50;96.10;;;;;;5105564;28;19995;-66
2023/04/07 11:29:39;;;;;;;;;;;9.50;96.00;;;;;;5106704;28;19954;-66
2023/04/07 11:32:04;;;;;;;;;;;9.50;96.00;;;;;;5091653;28;19971;-66
2023/04/07 11:34:31;;;;;;;;;;;9.50;96.10;;;;;;5086609;28;19912;-66
2023/04/07 11:37:02;;;;;;;;;;;9.50;96.10;;;;;;5093893;28;19948;-66
2023/04/07 11:39:30;;;;;;;;;;;9.50;96.20;;;;;;5107152;28;19918;-66
2023/04/07 11:41:55;;;;;;;;;;;9.50;96.20;;;;;;5106382;28;19912;-66
2023/04/07 11:44:21;;;;;;;;;;;9.50;96.30;;;;;;5106317;28;19915;-66
2023/04/07 11:46:57;;;;;;;;;;;9.50;96.20;;;;;;5106989;28;19954;-68
2023/04/07 11:49:23;;;;;;;;;;;9.50;96.30;;;;;;5106871;28;20358;-68
2023/04/07 11:51:56;;;;;;;;;;;9.50;96.30;;;;;;5106595;28;19908;-68
2023/04/07 11:54:21;;;;;;;;;;;9.50;96.30;;;;;;5106709;28;20326;-68
2023/04/07 11:56:47;;;;;;;;;;;9.50;96.30;;;;;;5108316;28;19999;-68
2023/04/07 11:59:22;;;;;;;;;;;9.50;96.20;;;;;;5109958;28;19916;-68
2023/04/07 12:01:49;;;;;;;;;;;9.50;96.10;;;;;;5108690;28;20368;-68
2023/04/07 12:04:16;;;;;;;;;;;9.50;96.10;;;;;;5110294;28;20424;-68
2023/04/07 12:06:42;;;;;;;;;;;9.60;96.20;;;;;;5109908;28;19908;-68
2023/04/07 12:09:08;;;;;;;;;;;9.60;96.20;;;;;;5108817;28;19916;-68
2023/04/07 12:11:34;;;;;;;;;;;9.60;96.20;;;;;;5110098;28;19912;-68
2023/04/07 12:14:00;;;;;;;;;;;9.60;96.30;;;;;;5109652;28;19908;-67
2023/04/07 12:16:26;;;;;;;;;;;9.60;96.40;;;;;;5110095;28;20369;-68
2023/04/07 12:18:52;;;;;;;;;;;9.60;96.40;;;;;;5109557;28;19919;-68
2023/04/07 12:21:17;;;;;;;;;;;9.60;96.30;;;;;;5109998;28;19916;-68
2023/04/07 12:23:43;;;;;;;;;;;9.60;96.20;;;;;;5109448;28;19912;-68
2023/04/07 12:26:10;;;;;;;;;;;9.60;96.20;;;;;;5109671;28;19912;-68
2023/04/07 12:28:36;;;;;;;;;;;9.60;96.10;;;;;;5109050;28;19911;-68
2023/04/07 12:31:02;;;;;;;;;;;9.60;96.10;;;;;;5102884;28;20380;-68
2023/04/07 12:33:28;;;;;;;;;;;9.60;96.10;;;;;;5087532;28;19912;-68
2023/04/07 12:35:53;;;;;;;;;;;9.60;96.10;;;;;;5089173;28;19975;-68
2023/04/07 12:38:19;;;;;;;;;;;9.60;96.30;;;;;;5108271;28;19923;-68
2023/04/07 12:40:45;;;;;;;;;;;9.60;96.30;;;;;;5108439;28;19924;-68
2023/04/07 12:43:10;;;;;;;;;;;9.60;96.30;;;;;;5109923;28;19915;-68
2023/04/07 12:45:36;;;;;;;;;;;9.60;96.30;;;;;;5110205;28;19911;-68
2023/04/07 12:48:01;;;;;;;;;;;9.60;96.20;;;;;;5108295;28;19950;-68
2023/04/07 12:50:28;;;;;;;;;;;9.60;96.10;;;;;;5109266;28;19922;-68
2023/04/07 12:52:54;;;;;;;;;;;9.60;96.10;;;;;;5109940;28;19912;-68
2023/04/07 12:55:19;;;;;;;;;;;9.60;96.00;;;;;;5110257;28;19923;-68
2023/04/07 12:57:46;;;;;;;;;;;9.60;96.00;;;;;;5108251;28;19922;-68
2023/04/07 13:00:12;;;;;;;;;;;9.60;96.00;;;;;;5110090;27;19919;-66
2023/04/07 13:02:37;;;;;;;;;;;9.60;96.00;;;;;;5108778;28;19919;-66
2023/04/07 13:05:03;;;;;;;;;;;9.60;96.00;;;;;;5109853;28;19908;-66
2023/04/07 13:07:29;;;;;;;;;;;9.70;96.00;;;;;;5108922;28;19950;-66
2023/04/07 13:09:56;;;;;;;;;;;9.70;95.90;;;;;;5110304;28;19934;-66
2023/04/07 13:12:21;;;;;;;;;;;9.70;96.00;;;;;;5109886;28;19999;-66
2023/04/07 13:14:47;;;;;;;;;;;9.70;96.00;;;;;;5110005;28;20014;-66
2023/04/07 13:17:13;;;;;;;;;;;9.70;96.00;;;;;;5110041;28;19918;-66
2023/04/07 13:19:39;;;;;;;;;;;9.70;96.00;;;;;;5109841;28;20506;-66
2023/04/07 13:22:04;;;;;;;;;;;9.70;96.00;;;;;;5109521;28;19969;-65
2023/04/07 13:24:30;;;;;;;;;;;9.70;96.20;;;;;;5110306;28;19907;-66
2023/04/07 13:26:56;;;;;;;;;;;9.70;96.20;;;;;;5110028;28;19907;-66
2023/04/07 13:29:24;;;;;;;;;;;9.80;96.20;;;;;;5107679;28;20142;-66
2023/04/07 13:31:50;;;;;;;;;;;9.80;96.20;;;;;;5096585;28;19915;-66
2023/04/07 13:34:15;;;;;;;;;;;9.80;96.20;;;;;;5089041;28;19908;-66
2023/04/07 13:36:41;;;;;;;;;;;9.80;96.20;;;;;;5094670;28;19908;-66
2023/04/07 13:39:07;;;;;;;;;;;9.80;96.20;;;;;;5109789;28;20437;-66
2023/04/07 13:41:32;;;;;;;;;;;9.80;96.10;;;;;;5109600;28;19911;-65
2023/04/07 13:43:59;;;;;;;;;;;9.80;96.10;;;;;;5108022;28;19914;-66
2023/04/07 13:46:25;;;;;;;;;;;9.80;96.20;;;;;;5109585;28;19919;-66
2023/04/07 13:48:51;;;;;;;;;;;9.80;96.30;;;;;;5109318;28;20256;-66
2023/04/07 13:51:17;;;;;;;;;;;9.80;96.20;;;;;;5109426;28;19912;-66
2023/04/07 13:53:43;;;;;;;;;;;9.90;96.20;;;;;;5109188;28;20415;-66
2023/04/07 13:56:09;;;;;;;;;;;9.90;96.20;;;;;;5109426;28;19912;-66
2023/04/07 13:58:34;;;;;;;;;;;9.90;96.20;;;;;;5108792;28;19955;-66
2023/04/07 14:01:00;;;;;;;;;;;9.90;96.20;;;;;;5109575;28;19950;-66
2023/04/07 14:03:26;;;;;;;;;;;9.90;96.20;;;;;;5108738;28;20034;-66
2023/04/07 14:05:52;;;;;;;;;;;9.80;96.20;;;;;;5109173;28;19912;-66
2023/04/07 14:08:19;;;;;;;;;;;9.80;96.30;;;;;;5108910;28;20342;-66
2023/04/07 14:10:45;;;;;;;;;;;9.80;96.50;;;;;;5109251;28;19920;-66
2023/04/07 14:13:10;;;;;;;;;;;9.80;96.50;;;;;;5108709;28;19908;-66
2023/04/07 14:15:36;;;;;;;;;;;9.80;96.60;;;;;;5109087;28;19964;-66
2023/04/07 14:18:01;;;;;;;;;;;9.80;96.50;;;;;;5108875;28;19912;-66
2023/04/07 14:20:27;;;;;;;;;;;9.80;96.50;;;;;;5106916;28;19926;-66
2023/04/07 14:22:52;;;;;;;;;;;9.80;96.40;;;;;;5108446;28;19911;-65
2023/04/07 14:25:18;;;;;;;;;;;9.80;96.30;;;;;;5108768;28;19922;-66
2023/04/07 14:27:43;;;;;;;;;;;9.80;96.30;;;;;;5108809;28;19945;-66